Time;durP1;ratioP1;P1;durP2;ratioP2;P2;SDS_P1;SDS_P2;PMS_P1;PMS_P2;Temp;Humidity;BMP_temperature;BMP_pressure;BME280_temperature;BME280_humidity;BME280_pressure;Samples;Min_cycle;Max_cycle;Signal;HPM_P1;HPM_P2
2023/10/24 00:01:04;;;;;;;4.10;2.28;;;;;;;13.45;71.69;100178.84;5076193;28;20055;-67
2023/10/24 00:03:32;;;;;;;5.35;2.40;;;;;;;13.46;71.53;100171.56;5071078;28;20049;-67
2023/10/24 00:06:03;;;;;;;13.15;3.15;;;;;;;13.44;71.94;100177.22;5075674;28;20105;-67
2023/10/24 00:08:30;;;;;;;4.13;2.15;;;;;;;13.44;72.09;100174.53;5074977;28;20045;-67
2023/10/24 00:11:02;;;;;;;5.75;2.40;;;;;;;13.45;71.48;100180.75;5076862;28;20044;-67
2023/10/24 00:13:30;;;;;;;8.07;2.40;;;;;;;13.46;71.57;100176.97;5078498;28;20444;-67
2023/10/24 00:15:57;;;;;;;4.78;2.53;;;;;;;13.45;71.84;100173.47;5074714;28;20448;-66
2023/10/24 00:18:26;;;;;;;6.32;2.72;;;;;;;13.41;71.57;100176.94;5076810;28;20116;-67
2023/10/24 00:20:54;;;;;;;5.97;1.88;;;;;;;13.46;71.73;100185.88;5072169;28;20044;-66
2023/10/24 00:23:23;;;;;;;4.75;2.08;;;;;;;13.46;71.69;100169.69;5077894;28;20049;-67
2023/10/24 00:25:52;;;;;;;3.95;2.20;;;;;;;13.45;71.82;100181.56;5074605;28;20134;-66
2023/10/24 00:28:20;;;;;;;5.22;2.28;;;;;;;13.45;71.60;100181.56;5074765;28;20044;-67
2023/10/24 00:30:48;;;;;;;7.68;2.20;;;;;;;13.45;71.72;100172.63;5076372;28;20452;-66
2023/10/24 00:33:15;;;;;;;4.38;2.17;;;;;;;13.45;71.64;100170.75;5080035;28;20052;-67
2023/10/24 00:35:43;;;;;;;4.32;2.40;;;;;;;13.44;71.94;100177.22;5076541;28;20489;-66
2023/10/24 00:38:11;;;;;;;8.00;2.63;;;;;;;13.41;72.18;100166.94;5075281;28;20045;-67
2023/10/24 00:40:40;;;;;;;2.88;2.15;;;;;;;13.44;72.11;100176.41;5078360;28;20048;-67
2023/10/24 00:43:09;;;;;;;4.53;2.00;;;;;;;13.44;71.98;100171.81;5076246;28;20101;-67
2023/10/24 00:45:37;;;;;;;3.78;2.03;;;;;;;13.44;71.49;100171.81;5076870;28;20564;-67
2023/10/24 00:48:07;;;;;;;6.95;2.03;;;;;;;13.44;72.11;100182.63;5078905;28;20219;-67
2023/10/24 00:50:35;;;;;;;2.13;1.70;;;;;;;13.43;71.79;100185.56;5078927;28;20048;-67
2023/10/24 00:53:02;;;;;;;5.53;2.10;;;;;;;13.44;71.65;100188.03;5074213;28;20056;-67
2023/10/24 00:55:31;;;;;;;4.07;2.13;;;;;;;13.45;71.73;100181.56;5078882;28;20047;-67
2023/10/24 00:58:02;;;;;;;5.15;2.55;;;;;;;13.45;71.76;100186.13;5078168;28;20063;-67
2023/10/24 01:00:31;;;;;;;3.22;2.03;;;;;;;13.45;72.02;100178.03;5074766;28;20231;-67
2023/10/24 01:03:01;;;;;;;5.13;2.00;;;;;;;13.45;71.74;100178.84;5075027;28;20059;-67
2023/10/24 01:05:30;;;;;;;4.07;2.78;;;;;;;13.44;71.98;100174.53;5070727;28;20056;-67
2023/10/24 01:07:58;;;;;;;7.18;2.28;;;;;;;13.45;71.87;100180.75;5069573;28;20052;-67
2023/10/24 01:10:26;;;;;;;3.90;2.00;;;;;;;13.45;71.67;100173.47;5079029;28;20547;-67
2023/10/24 01:12:54;;;;;;;5.13;2.28;;;;;;;13.45;71.62;100173.47;5074760;28;20045;-67
2023/10/24 01:15:23;;;;;;;3.03;1.73;;;;;;;13.46;71.52;100179.66;5077954;28;20049;-67
2023/10/24 01:17:53;;;;;;;5.80;1.63;;;;;;;13.45;71.98;100181.56;5076132;28;20485;-67
2023/10/24 01:20:21;;;;;;;4.30;2.22;;;;;;;13.45;71.84;100186.13;5082281;28;20044;-67
2023/10/24 01:22:50;;;;;;;7.20;2.20;;;;;;;13.44;71.70;100177.22;5080934;28;20053;-67
2023/10/24 01:25:18;;;;;;;5.20;2.42;;;;;;;13.46;71.35;100180.47;5082918;28;20540;-68
2023/10/24 01:27:53;;;;;;;4.22;1.92;;;;;;;13.46;71.66;100175.09;5082891;28;20068;-67
2023/10/24 01:30:22;;;;;;;4.15;2.38;;;;;;;13.40;71.81;100178.81;5077683;28;20047;-67
2023/10/24 01:32:49;;;;;;;2.85;1.88;;;;;;;13.45;71.42;100186.13;5074682;28;20420;-67
2023/10/24 01:35:17;;;;;;;6.63;1.90;;;;;;;13.45;71.46;100186.94;5075822;28;20053;-67
2023/10/24 01:37:45;;;;;;;3.45;2.05;;;;;;;13.47;71.34;100184.00;5080120;28;20110;-67
2023/10/24 01:40:14;;;;;;;5.00;2.35;;;;;;;13.47;71.66;100179.41;5082650;28;20040;-66
2023/10/24 01:42:42;;;;;;;4.30;1.80;;;;;;;13.46;71.41;100171.56;5080393;28;20068;-67
2023/10/24 01:45:11;;;;;;;3.00;1.73;;;;;;;13.45;71.56;100181.56;5079704;28;20181;-66
2023/10/24 01:47:39;;;;;;;2.97;1.80;;;;;;;13.46;71.75;100169.69;5079662;28;20040;-66
2023/10/24 01:50:08;;;;;;;2.78;1.35;;;;;;;13.42;71.25;100167.75;5082842;28;20120;-66
2023/10/24 01:52:36;;;;;;;3.15;1.67;;;;;;;13.48;71.41;100182.94;5081133;28;20090;-66
2023/10/24 01:55:04;;;;;;;3.38;1.83;;;;;;;13.47;71.24;100182.13;5080014;28;20099;-67
2023/10/24 01:57:33;;;;;;;3.50;2.03;;;;;;;13.46;71.50;100183.19;5079262;28;20082;-67
2023/10/24 02:00:03;;;;;;;3.70;1.90;;;;;;;13.47;71.38;100184.81;5079599;28;20041;-67
2023/10/24 02:02:31;;;;;;;2.65;1.80;;;;;;;13.46;71.27;100177.78;5084024;28;20055;-66
2023/10/24 02:04:59;;;;;;;4.25;2.03;;;;;;;13.46;71.56;100183.19;5082065;28;20068;-67
2023/10/24 02:07:27;;;;;;;3.50;2.28;;;;;;;13.46;71.61;100187.75;5080034;28;20071;-67
2023/10/24 02:09:55;;;;;;;3.13;1.80;;;;;;;13.46;71.27;100187.75;5075920;28;20060;-67
2023/10/24 02:12:24;;;;;;;3.40;2.15;;;;;;;13.46;71.34;100185.06;5078985;28;20462;-67
2023/10/24 02:14:53;;;;;;;3.97;2.50;;;;;;;13.39;71.50;100174.47;5076505;28;20060;-68
2023/10/24 02:17:21;;;;;;;2.92;2.13;;;;;;;13.33;71.75;100153.91;5079855;28;20053;-68
2023/10/24 02:19:49;;;;;;;4.93;2.53;;;;;;;13.43;71.38;100181.00;5081695;28;20055;-68
2023/10/24 02:22:17;;;;;;;6.80;2.47;;;;;;;13.42;71.49;100176.66;5076404;28;20048;-68
2023/10/24 02:24:44;;;;;;;7.18;3.40;;;;;;;13.42;71.24;100173.16;5083959;28;20051;-68
2023/10/24 02:27:13;;;;;;;4.30;2.53;;;;;;;13.41;71.57;100174.22;5076916;28;20075;-68
2023/10/24 02:29:40;;;;;;;4.32;2.28;;;;;;;13.43;71.62;100186.41;5077758;28;20095;-68
2023/10/24 02:32:10;;;;;;;4.22;2.33;;;;;;;13.37;71.61;100178.50;5082594;28;20127;-66
2023/10/24 02:34:38;;;;;;;3.67;2.05;;;;;;;13.42;71.15;100187.47;5080660;28;20056;-68
2023/10/24 02:37:06;;;;;;;4.05;2.20;;;;;;;13.43;71.50;100190.97;5076739;28;20084;-67
2023/10/24 02:39:34;;;;;;;3.40;2.03;;;;;;;13.41;71.47;100193.13;5081443;28;20466;-67
2023/10/24 02:42:02;;;;;;;4.80;1.90;;;;;;;13.42;71.59;100197.44;5078503;28;20114;-68
2023/10/24 02:44:30;;;;;;;3.05;2.00;;;;;;;13.38;71.21;100191.75;5079017;28;20410;-68
2023/10/24 02:46:57;;;;;;;2.58;1.85;;;;;;;13.40;71.15;100192.31;5084233;28;20064;-67
2023/10/24 02:49:27;;;;;;;3.78;2.03;;;;;;;13.40;71.45;100188.78;5075286;28;20052;-67
2023/10/24 02:51:55;;;;;;;4.75;1.70;;;;;;;13.39;71.08;100197.97;5071535;28;20072;-66
2023/10/24 02:54:23;;;;;;;4.30;1.88;;;;;;;13.39;71.54;100198.78;5083014;28;20052;-66
2023/10/24 02:56:51;;;;;;;3.65;2.00;;;;;;;13.39;70.94;100200.66;5079238;28;20055;-67
2023/10/24 02:59:19;;;;;;;2.90;1.83;;;;;;;13.39;71.36;100200.66;5081596;28;20110;-66
2023/10/24 03:01:47;;;;;;;2.80;1.95;;;;;;;13.26;71.19;100186.50;5079317;28;20049;-66
2023/10/24 03:04:15;;;;;;;4.15;1.63;;;;;;;13.37;70.96;100202.78;5076155;28;20055;-67
2023/10/24 03:06:44;;;;;;;3.92;2.15;;;;;;;13.38;71.03;100210.63;5076988;28;20056;-67
2023/10/24 03:09:12;;;;;;;1.60;1.42;;;;;;;13.38;71.01;100215.22;5078736;28;20040;-67
2023/10/24 03:11:39;;;;;;;3.20;1.92;;;;;;;13.37;70.88;100211.72;5076174;28;20052;-67
2023/10/24 03:14:07;;;;;;;2.67;1.65;;;;;;;13.38;71.04;100209.81;5076012;28;20570;-67
2023/10/24 03:16:35;;;;;;;4.32;1.90;;;;;;;13.37;71.03;100208.19;5078927;28;20045;-67
2023/10/24 03:19:03;;;;;;;3.88;1.40;;;;;;;13.38;70.88;100209.81;5079843;28;20063;-67
2023/10/24 03:21:31;;;;;;;2.25;1.63;;;;;;;13.35;70.96;100206.56;5079154;28;20090;-67
2023/10/24 03:24:00;;;;;;;3.42;1.80;;;;;;;13.36;71.25;100212.78;5074044;28;20101;-67
2023/10/24 03:26:27;;;;;;;2.30;1.50;;;;;;;13.34;71.38;100217.63;5075853;28;20068;-67
2023/10/24 03:28:55;;;;;;;3.45;1.95;;;;;;;13.34;71.19;100215.72;5083309;28;20083;-67
2023/10/24 03:31:23;;;;;;;3.15;1.60;;;;;;;13.34;70.79;100210.34;5074802;28;20433;-67
2023/10/24 03:33:51;;;;;;;2.22;1.58;;;;;;;13.35;71.06;100205.75;5077718;28;20045;-67
2023/10/24 03:36:19;;;;;;;2.50;1.52;;;;;;;13.35;70.88;100206.56;5074746;28;20052;-67
2023/10/24 03:38:47;;;;;;;2.88;1.73;;;;;;;13.35;71.04;100194.97;5078771;28;20051;-66
2023/10/24 03:41:16;;;;;;;1.95;1.52;;;;;;;13.37;70.83;100209.00;5073029;28;20550;-67
2023/10/24 03:43:48;;;;;;;2.70;1.50;;;;;;;13.37;70.80;100217.09;5073580;28;20074;-67
2023/10/24 03:46:16;;;;;;;2.45;1.58;;;;;;;13.37;70.74;100208.19;5079737;28;20052;-67
2023/10/24 03:48:44;;;;;;;3.92;2.00;;;;;;;13.36;70.77;100210.09;5082336;28;20444;-67
2023/10/24 03:51:12;;;;;;;2.92;1.80;;;;;;;13.36;70.96;100223.56;5078544;28;20105;-67
2023/10/24 03:53:40;;;;;;;3.03;1.60;;;;;;;13.30;70.88;100205.72;5070424;28;20049;-68
2023/10/24 03:56:07;;;;;;;4.18;2.10;;;;;;;13.37;70.98;100216.28;5083506;28;20090;-66
2023/10/24 03:58:36;;;;;;;2.92;1.80;;;;;;;13.35;70.97;100222.75;5075176;28;20110;-67
2023/10/24 04:01:05;;;;;;;2.65;1.90;;;;;;;13.35;70.95;100213.84;5078145;28;20045;-67
2023/10/24 04:03:34;;;;;;;3.65;2.15;;;;;;;13.36;71.19;100215.47;5078338;28;20076;-66
2023/10/24 04:06:03;;;;;;;3.20;1.95;;;;;;;13.37;70.50;100211.72;5075509;28;20072;-68
2023/10/24 04:08:31;;;;;;;3.00;1.70;;;;;;;13.37;70.54;100211.72;5077748;28;20049;-68
2023/10/24 04:10:58;;;;;;;4.03;2.08;;;;;;;13.32;70.30;100200.88;5073121;28;20048;-67
2023/10/24 04:13:26;;;;;;;2.13;1.52;;;;;;;13.37;70.45;100211.72;5079357;28;20102;-67
2023/10/24 04:15:59;;;;;;;4.38;1.73;;;;;;;13.34;70.46;100198.72;5076160;28;20044;-67
2023/10/24 04:18:27;;;;;;;2.08;1.60;;;;;;;13.34;70.36;100196.84;5082388;28;20045;-67
2023/10/24 04:20:55;;;;;;;2.30;1.75;;;;;;;13.34;70.40;100188.75;5077079;28;20094;-67
2023/10/24 04:23:23;;;;;;;2.85;1.77;;;;;;;13.24;70.27;100168.94;5073715;28;20053;-67
2023/10/24 04:25:51;;;;;;;2.42;1.67;;;;;;;13.35;70.30;100186.88;5076351;28;20131;-67
2023/10/24 04:28:19;;;;;;;1.88;1.50;;;;;;;13.33;70.63;100189.81;5077089;28;20507;-66
2023/10/24 04:30:47;;;;;;;1.83;1.48;;;;;;;13.34;70.70;100179.84;5079259;28;20036;-66
2023/10/24 04:33:16;;;;;;;2.97;1.85;;;;;;;13.33;70.28;100178.22;5076774;28;20450;-66
2023/10/24 04:35:43;;;;;;;2.05;1.40;;;;;;;13.33;70.08;100178.22;5071142;28;20753;-66
2023/10/24 04:38:11;;;;;;;2.95;1.67;;;;;;;13.31;70.54;100181.16;5076544;28;20081;-67
2023/10/24 04:40:39;;;;;;;1.85;1.27;;;;;;;13.29;70.65;100177.09;5075371;28;20074;-67
2023/10/24 04:43:07;;;;;;;1.75;1.20;;;;;;;13.30;70.41;100184.94;5071504;28;20066;-67
2023/10/24 04:45:36;;;;;;;3.83;1.73;;;;;;;13.33;70.60;100183.59;5077988;28;20072;-68
2023/10/24 04:48:04;;;;;;;2.72;1.90;;;;;;;13.33;70.03;100187.13;5075539;28;20053;-68
2023/10/24 04:50:36;;;;;;;3.25;1.33;;;;;;;13.26;70.19;100180.31;5078643;28;20113;-68
2023/10/24 04:53:04;;;;;;;1.80;1.42;;;;;;;13.23;70.01;100168.13;5079623;28;20044;-67
2023/10/24 04:55:33;;;;;;;1.73;1.45;;;;;;;13.36;69.89;100183.09;5083965;28;20056;-68
2023/10/24 04:58:01;;;;;;;2.13;1.50;;;;;;;13.35;70.06;100182.28;5079059;28;20104;-67
2023/10/24 05:00:28;;;;;;;1.38;1.17;;;;;;;13.35;70.23;100194.97;5083105;28;20052;-68
2023/10/24 05:02:56;;;;;;;1.67;1.40;;;;;;;13.35;69.92;100190.38;5080473;28;20066;-65
2023/10/24 05:05:24;;;;;;;1.52;1.20;;;;;;;13.34;69.85;100193.31;5077726;28;20052;-65
2023/10/24 05:07:54;;;;;;;1.70;1.33;;;;;;;13.32;70.21;100198.16;5079752;28;20052;-64
2023/10/24 05:10:21;;;;;;;1.85;1.50;;;;;;;13.30;70.16;100189.50;5084255;28;20048;-68
2023/10/24 05:12:49;;;;;;;1.52;1.30;;;;;;;13.32;70.33;100192.78;5080550;28;20147;-64
2023/10/24 05:15:17;;;;;;;2.00;1.30;;;;;;;13.30;70.00;100193.03;5081628;28;20104;-67
2023/10/24 05:17:45;;;;;;;4.28;1.17;;;;;;;13.33;69.99;100206.00;5076932;28;20044;-65
2023/10/24 05:20:16;;;;;;;1.25;1.15;;;;;;;13.30;69.81;100181.41;5077834;28;20475;-61
2023/10/24 05:22:44;;;;;;;1.88;1.42;;;;;;;13.30;70.25;100184.94;5077179;28;20045;-69
2023/10/24 05:25:14;;;;;;;1.00;0.90;;;;;;;13.29;70.22;100186.00;5075432;28;20084;-66
2023/10/24 05:27:41;;;;;;;2.45;1.50;;;;;;;13.29;70.07;100172.50;5079593;28;20052;-66
2023/10/24 05:30:10;;;;;;;1.30;1.20;;;;;;;13.29;70.03;100164.41;5076907;28;20049;-66
2023/10/24 05:32:38;;;;;;;1.92;1.33;;;;;;;13.28;69.96;100164.66;5078202;28;20090;-64
2023/10/24 05:35:07;;;;;;;2.13;1.48;;;;;;;13.28;70.18;100167.38;5075328;28;20533;-66
2023/10/24 05:37:34;;;;;;;1.83;1.38;;;;;;;13.27;69.99;100158.47;5080455;28;20141;-65
2023/10/24 05:40:03;;;;;;;2.78;1.05;;;;;;;13.27;70.14;100157.63;4723421;28;10001730;-65
2023/10/24 05:42:34;;;;;;;2.15;1.20;;;;;;;13.26;69.92;100173.00;5070137;28;20057;-65
2023/10/24 05:45:02;;;;;;;1.13;1.00;;;;;;;13.25;69.80;100181.38;5075551;28;20044;-65
2023/10/24 05:47:29;;;;;;;1.77;1.00;;;;;;;13.24;70.08;100177.03;5068312;28;20086;-66
2023/10/24 05:49:57;;;;;;;2.10;1.20;;;;;;;13.26;70.20;100172.19;5071196;28;20105;-66
2023/10/24 05:52:25;;;;;;;1.42;1.33;;;;;;;13.25;70.09;100184.88;5070817;28;20562;-64
2023/10/24 05:54:54;;;;;;;2.20;1.33;;;;;;;13.22;69.79;100192.69;5076377;28;20052;-65
2023/10/24 05:57:23;;;;;;;2.22;1.40;;;;;;;13.23;69.90;100205.91;5081879;28;20048;-66
2023/10/24 05:59:52;;;;;;;0.90;0.90;;;;;;;13.30;70.62;100203.81;5076297;28;20060;-66
2023/10/24 06:02:20;;;;;;;1.52;1.23;;;;;;;13.42;70.53;100216.34;5079541;28;20592;-63
2023/10/24 06:04:48;;;;;;;3.10;1.40;;;;;;;13.50;69.43;100202.38;5079409;28;20101;-64
2023/10/24 06:07:16;;;;;;;2.30;1.20;;;;;;;13.40;70.04;100200.41;5081303;28;20045;-62
2023/10/24 06:09:44;;;;;;;2.63;1.67;;;;;;;13.31;69.86;100183.03;5076853;28;20047;-63
2023/10/24 06:12:11;;;;;;;2.38;1.38;;;;;;;13.30;69.61;100167.94;5084587;28;20044;-63
2023/10/24 06:14:39;;;;;;;2.38;1.10;;;;;;;13.31;69.66;100156.06;5082854;28;20041;-63
2023/10/24 06:17:09;;;;;;;1.92;1.00;;;;;;;13.29;69.95;100159.00;5085621;28;20052;-63
2023/10/24 06:19:40;;;;;;;1.60;1.10;;;;;;;13.31;70.06;100164.16;5085911;28;20048;-63
2023/10/24 06:22:08;;;;;;;2.20;1.50;;;;;;;13.30;69.57;100176.03;5076204;28;20045;-64
2023/10/24 06:24:36;;;;;;;1.30;0.73;;;;;;;13.32;70.08;100190.06;5085180;28;20040;-63
2023/10/24 06:27:05;;;;;;;1.65;1.00;;;;;;;13.33;69.87;100205.19;5084020;28;20135;-64
2023/10/24 06:29:32;;;;;;;2.40;1.00;;;;;;;13.35;70.31;100197.66;5085241;28;20204;-63
2023/10/24 06:32:00;;;;;;;2.13;1.25;;;;;;;13.44;70.58;100206.91;5085713;28;20098;-63
2023/10/24 06:34:30;;;;;;;1.70;1.00;;;;;;;13.39;69.59;100201.47;5085019;28;20056;-63
2023/10/24 06:36:58;;;;;;;1.50;1.33;;;;;;;13.34;69.42;100204.94;5078884;28;20434;-64
2023/10/24 06:39:26;;;;;;;4.50;1.52;;;;;;;13.32;70.14;100212.47;5083330;28;20052;-66
2023/10/24 06:41:55;;;;;;;1.27;1.05;;;;;;;13.30;70.09;100209.22;5079159;28;20048;-65
2023/10/24 06:44:23;;;;;;;3.30;1.60;;;;;;;13.29;69.62;100206.78;5079785;28;20180;-67
2023/10/24 06:46:51;;;;;;;2.60;1.58;;;;;;;13.27;70.18;100198.13;5081265;28;20053;-68
2023/10/24 06:49:19;;;;;;;3.72;2.00;;;;;;;13.26;69.68;100200.00;5076667;28;20051;-67
2023/10/24 06:51:50;;;;;;;2.25;1.50;;;;;;;13.26;70.10;100205.41;5075611;28;20055;-67
2023/10/24 06:54:18;;;;;;;3.92;1.20;;;;;;;13.25;69.61;100202.97;5080352;28;20541;-68
2023/10/24 06:56:46;;;;;;;2.53;1.40;;;;;;;13.25;69.81;100198.38;5080288;28;20190;-68
2023/10/24 06:59:13;;;;;;;2.75;1.42;;;;;;;13.24;70.08;100198.63;5081863;28;20048;-66
2023/10/24 07:01:41;;;;;;;2.53;1.70;;;;;;;13.22;70.09;100185.41;5081109;28;20041;-66
2023/10/24 07:04:09;;;;;;;3.65;1.42;;;;;;;13.24;69.62;100190.53;5083429;28;20040;-66
2023/10/24 07:06:36;;;;;;;4.40;1.40;;;;;;;13.23;69.86;100199.69;5078788;28;20061;-65
2023/10/24 07:09:06;;;;;;;3.33;1.60;;;;;;;13.24;70.22;100198.63;5082367;28;20395;-67
2023/10/24 07:11:34;;;;;;;3.17;2.17;;;;;;;13.23;69.73;100184.31;5081313;28;20408;-67
2023/10/24 07:14:01;;;;;;;2.53;1.67;;;;;;;13.22;69.69;100180.00;5077627;28;20045;-66
2023/10/24 07:16:29;;;;;;;2.20;1.70;;;;;;;13.22;69.87;100193.50;5081412;28;20076;-66
2023/10/24 07:18:57;;;;;;;3.38;1.98;;;;;;;13.25;69.95;100197.56;5083667;28;20091;-66
2023/10/24 07:21:25;;;;;;;3.85;1.95;;;;;;;13.26;70.14;100185.69;5080367;28;20044;-67
2023/10/24 07:23:54;;;;;;;2.30;1.60;;;;;;;13.26;70.14;100183.81;5080625;28;20060;-66
2023/10/24 07:26:23;;;;;;;3.13;1.77;;;;;;;13.24;69.76;100182.44;5078373;28;20086;-67
2023/10/24 07:28:51;;;;;;;4.60;2.20;;;;;;;13.22;69.57;100193.50;5080359;28;20104;-67
2023/10/24 07:31:19;;;;;;;3.55;2.13;;;;;;;13.21;70.06;100183.75;5080160;28;20150;-66
2023/10/24 07:33:47;;;;;;;3.95;2.28;;;;;;;13.22;69.90;100193.50;5081497;28;20051;-67
2023/10/24 07:36:16;;;;;;;4.50;2.28;;;;;;;13.16;69.81;100185.56;5075939;28;20423;-67
2023/10/24 07:38:44;;;;;;;4.70;2.30;;;;;;;13.23;69.90;100186.22;5081156;28;20037;-67
2023/10/24 07:41:12;;;;;;;4.45;2.00;;;;;;;13.25;69.98;100184.06;5081240;28;20048;-69
2023/10/24 07:43:42;;;;;;;3.80;2.75;;;;;;;13.26;69.91;100175.72;5081217;28;20154;-66
2023/10/24 07:46:10;;;;;;;4.28;2.72;;;;;;;13.24;70.32;100168.94;5079210;28;20064;-65
2023/10/24 07:48:37;;;;;;;5.03;2.47;;;;;;;13.26;70.00;100177.59;5082830;28;20052;-67
2023/10/24 07:51:05;;;;;;;4.47;2.72;;;;;;;13.26;69.83;100177.59;5081473;28;20049;-67
2023/10/24 07:53:34;;;;;;;4.88;2.90;;;;;;;13.25;69.74;100178.66;5080893;28;20036;-67
2023/10/24 07:56:04;;;;;;;3.58;2.58;;;;;;;13.25;70.07;100186.75;5080163;28;20116;-67
2023/10/24 07:58:32;;;;;;;3.95;2.22;;;;;;;13.22;69.77;100174.59;5079297;28;20053;-67
2023/10/24 08:01:03;;;;;;;6.00;2.75;;;;;;;13.23;70.15;100178.13;5081802;28;20049;-67
2023/10/24 08:03:31;;;;;;;6.88;2.50;;;;;;;13.24;69.97;100171.66;5075492;28;20044;-66
2023/10/24 08:06:00;;;;;;;3.33;2.20;;;;;;;13.27;69.85;100177.34;5081176;28;20056;-66
2023/10/24 08:08:28;;;;;;;4.82;2.67;;;;;;;13.28;70.29;100178.16;5077497;28;20052;-66
2023/10/24 08:10:56;;;;;;;3.88;2.58;;;;;;;13.30;70.14;100176.84;5080637;28;20053;-67
2023/10/24 08:13:24;;;;;;;7.05;3.13;;;;;;;13.31;69.88;100177.66;5080447;28;20048;-67
2023/10/24 08:15:53;;;;;;;4.45;2.53;;;;;;;13.30;70.13;100181.41;5079904;28;20049;-66
2023/10/24 08:18:22;;;;;;;3.63;2.47;;;;;;;13.30;70.08;100184.94;5079807;28;20124;-67
2023/10/24 08:20:50;;;;;;;3.78;2.88;;;;;;;13.31;69.67;100188.44;5075559;28;20453;-67
2023/10/24 08:23:17;;;;;;;4.00;2.42;;;;;;;13.29;70.16;100191.41;5074914;28;20048;-67
2023/10/24 08:25:45;;;;;;;5.30;2.60;;;;;;;13.31;70.02;100199.25;5075940;28;20049;-67
2023/10/24 08:28:13;;;;;;;5.40;3.13;;;;;;;13.33;70.27;100210.59;5081787;28;20040;-67
2023/10/24 08:30:41;;;;;;;4.38;2.35;;;;;;;13.34;70.03;100206.81;5079517;28;20044;-66
2023/10/24 08:33:09;;;;;;;2.65;2.15;;;;;;;13.36;70.60;100212.78;5078088;28;20090;-66
2023/10/24 08:35:39;;;;;;;4.43;2.60;;;;;;;13.40;70.04;100219.28;5078664;28;20071;-66
2023/10/24 08:38:07;;;;;;;3.65;2.20;;;;;;;13.34;69.97;100217.63;5079271;28;20049;-66
2023/10/24 08:40:34;;;;;;;4.50;2.33;;;;;;;13.42;70.26;100219.03;5076919;28;20053;-66
2023/10/24 08:43:03;;;;;;;5.22;2.40;;;;;;;13.39;69.96;100219.56;5079184;28;20075;-67
2023/10/24 08:45:31;;;;;;;5.43;2.58;;;;;;;13.37;70.21;100209.00;5078516;28;20047;-67
2023/10/24 08:48:01;;;;;;;4.05;1.98;;;;;;;13.42;70.45;100209.06;5080279;28;20060;-66
2023/10/24 08:50:29;;;;;;;4.45;2.17;;;;;;;13.61;70.33;100206.78;5081715;28;20048;-66
2023/10/24 08:52:59;;;;;;;4.53;1.88;;;;;;;13.49;70.20;100212.38;5080615;28;20056;-67
2023/10/24 08:55:29;;;;;;;3.88;2.30;;;;;;;13.47;70.21;100222.59;5073812;28;20068;-67
2023/10/24 08:58:00;;;;;;;3.58;2.10;;;;;;;13.47;70.16;100227.19;5081328;28;20056;-67
2023/10/24 09:00:29;;;;;;;6.05;2.33;;;;;;;13.47;70.43;100216.38;5079896;28;20068;-67
2023/10/24 09:03:00;;;;;;;4.22;2.28;;;;;;;13.46;70.07;100201.25;5079490;28;20045;-67
2023/10/24 09:05:28;;;;;;;3.40;2.00;;;;;;;13.34;70.31;100174.44;5078912;28;20044;-67
2023/10/24 09:07:57;;;;;;;5.13;2.72;;;;;;;13.46;70.27;100196.69;5076272;28;20056;-66
2023/10/24 09:10:26;;;;;;;5.07;2.17;;;;;;;13.46;70.60;100193.16;5079467;28;20163;-65
2023/10/24 09:12:54;;;;;;;5.13;2.13;;;;;;;13.46;70.62;100185.06;5079527;28;20052;-65
2023/10/24 09:15:22;;;;;;;5.00;2.22;;;;;;;13.46;70.61;100182.38;5082525;28;20063;-64
2023/10/24 09:17:50;;;;;;;4.20;2.17;;;;;;;13.45;70.35;100173.47;5078568;28;20057;-64
2023/10/24 09:20:18;;;;;;;3.03;2.17;;;;;;;13.43;70.62;100164.00;5081099;28;20349;-65
2023/10/24 09:22:46;;;;;;;6.60;2.25;;;;;;;13.48;70.58;100174.81;5074902;28;20083;-64
2023/10/24 09:25:15;;;;;;;3.50;2.10;;;;;;;13.47;70.39;100168.63;5080708;28;20064;-64
2023/10/24 09:27:44;;;;;;;4.55;2.00;;;;;;;13.37;70.58;100146.94;5076940;28;20044;-66
2023/10/24 09:30:13;;;;;;;2.58;1.70;;;;;;;13.50;70.49;100159.19;5080893;28;20067;-64
2023/10/24 09:32:41;;;;;;;3.78;1.92;;;;;;;13.52;70.61;100170.53;5076186;28;20449;-64
2023/10/24 09:35:10;;;;;;;5.75;2.15;;;;;;;13.51;70.51;100179.72;5077183;28;20104;-64
2023/10/24 09:37:39;;;;;;;4.30;1.90;;;;;;;13.50;70.77;100183.47;5079651;28;20048;-64
2023/10/24 09:40:08;;;;;;;5.75;2.47;;;;;;;13.51;70.88;100177.00;5081345;28;20138;-64
2023/10/24 09:42:39;;;;;;;3.33;2.03;;;;;;;13.51;70.61;100171.63;5081877;28;20098;-64
2023/10/24 09:45:10;;;;;;;1.88;1.50;;;;;;;13.51;70.98;100168.91;5080819;28;20056;-65
2023/10/24 09:47:39;;;;;;;3.10;1.90;;;;;;;13.58;70.67;100173.03;5081458;28;20143;-64
2023/10/24 09:50:12;;;;;;;4.45;2.20;;;;;;;13.56;70.47;100169.78;5082915;28;20109;-65
2023/10/24 09:52:42;;;;;;;3.58;2.28;;;;;;;13.53;70.52;100170.28;5081086;28;20064;-65
2023/10/24 09:55:11;;;;;;;4.35;1.88;;;;;;;13.70;70.75;100158.53;5084296;28;20064;-64
2023/10/24 09:57:40;;;;;;;4.50;2.20;;;;;;;13.62;70.58;100168.72;5084644;28;20105;-65
2023/10/24 10:00:12;;;;;;;4.88;2.63;;;;;;;13.59;70.54;100160.34;5082216;28;20048;-65
2023/10/24 10:02:44;;;;;;;4.28;2.30;;;;;;;13.58;70.56;100162.22;5082817;28;20044;-65
2023/10/24 10:05:13;;;;;;;3.65;2.58;;;;;;;13.57;70.95;100168.69;5082576;28;20076;-64
2023/10/24 10:07:48;;;;;;;3.85;2.40;;;;;;;13.57;70.77;100171.41;5080536;28;20044;-65
2023/10/24 10:10:16;;;;;;;4.22;2.45;;;;;;;13.60;71.12;100184.38;5078741;28;20057;-65
2023/10/24 10:12:45;;;;;;;3.35;1.90;;;;;;;13.60;70.68;100176.28;5083656;28;20051;-65
2023/10/24 10:15:36;;;;;;;4.32;2.58;;;;;;;13.61;70.93;100180.59;5083206;28;20047;-65
2023/10/24 10:18:15;;;;;;;5.95;2.63;;;;;;;13.61;71.02;100177.91;5076560;28;20094;-66
2023/10/24 10:20:54;;;;;;;4.18;2.65;;;;;;;13.61;70.86;100185.19;5081979;28;20048;-65
2023/10/24 10:23:50;;;;;;;6.03;2.58;;;;;;;13.58;70.62;100174.91;5081703;28;20501;-66
2023/10/24 10:26:24;;;;;;;4.35;2.60;;;;;;;13.60;71.03;100176.28;5081594;28;20072;-65
2023/10/24 10:29:06;;;;;;;3.58;2.33;;;;;;;13.63;70.78;100180.34;5079557;28;20045;-65
2023/10/24 10:31:50;;;;;;;3.92;2.30;;;;;;;13.61;70.55;100185.19;5084519;28;20044;-65
2023/10/24 10:34:38;;;;;;;4.45;2.50;;;;;;;13.60;71.06;100170.06;5082355;28;20120;-61
2023/10/24 10:37:06;;;;;;;3.97;2.22;;;;;;;13.58;70.76;100172.22;5080225;28;20108;-63
2023/10/24 10:39:34;;;;;;;9.98;2.70;;;;;;;13.58;70.75;100170.31;5083671;28;20045;-64
2023/10/24 10:42:02;;;;;;;5.72;2.47;;;;;;;13.58;71.11;100175.72;5078404;28;20064;-63
2023/10/24 10:44:41;;;;;;;6.05;2.80;;;;;;;13.60;71.08;100164.66;5082522;28;20120;-63
2023/10/24 10:47:16;;;;;;;4.45;2.30;;;;;;;13.60;71.11;100164.66;5083334;28;20049;-63
2023/10/24 10:49:49;;;;;;;3.45;2.25;;;;;;;13.59;70.80;100161.16;5075299;28;20048;-63
2023/10/24 10:52:28;;;;;;;3.40;2.25;;;;;;;13.59;71.07;100165.75;5083724;28;20091;-63
2023/10/24 10:55:11;;;;;;;3.03;1.90;;;;;;;13.59;71.16;100160.34;5084950;28;20055;-63
2023/10/24 10:58:01;;;;;;;3.80;2.65;;;;;;;13.59;71.23;100171.94;5080892;28;20041;-63
2023/10/24 11:00:38;;;;;;;5.25;2.05;;;;;;;13.60;71.04;100172.75;5084016;28;20052;-64
2023/10/24 11:03:23;;;;;;;5.07;2.28;;;;;;;13.60;71.48;100175.47;5084034;28;20052;-64
2023/10/24 11:05:51;;;;;;;3.50;1.88;;;;;;;13.60;71.26;100178.16;5072263;28;20467;-64
2023/10/24 11:08:24;;;;;;;4.38;2.03;;;;;;;13.63;71.17;100183.88;5078668;28;20061;-64
2023/10/24 11:11:00;;;;;;;4.10;2.58;;;;;;;13.62;71.51;100176.03;5082505;28;20070;-63
2023/10/24 11:13:35;;;;;;;4.75;2.08;;;;;;;13.62;71.44;100176.84;5082907;28;20684;-63
2023/10/24 11:16:04;;;;;;;4.53;2.20;;;;;;;13.63;71.66;100188.44;5082805;28;20078;-64
2023/10/24 11:18:46;;;;;;;5.03;2.00;;;;;;;13.63;71.43;100177.66;5080689;28;20131;-64
2023/10/24 11:21:15;;;;;;;3.38;2.00;;;;;;;13.62;71.72;100189.53;5073768;28;20076;-64
2023/10/24 11:23:43;;;;;;;3.92;2.13;;;;;;;13.62;71.59;100182.25;5070474;28;20110;-64
2023/10/24 11:26:11;;;;;;;6.13;2.00;;;;;;;13.61;71.45;100177.09;5077841;28;20113;-64
2023/10/24 11:28:39;;;;;;;6.18;2.13;;;;;;;13.58;71.66;100164.13;5081749;28;20048;-64
2023/10/24 11:31:21;;;;;;;4.40;2.00;;;;;;;13.60;71.83;100170.88;5083836;28;20159;-64
2023/10/24 11:33:51;;;;;;;5.78;1.92;;;;;;;13.63;71.82;100175.75;5080793;28;20071;-64